createdAt,value
2022-12-12T00:01:33.005Z,89.40
2022-12-12T00:04:01.434Z,89.19
2022-12-12T00:06:30.223Z,88.03
2022-12-12T00:08:58.112Z,88.48
2022-12-12T00:11:27.572Z,88.52
2022-12-12T00:13:56.588Z,88.96
2022-12-12T00:16:26.704Z,88.48
2022-12-12T00:18:55.197Z,88.68
2022-12-12T00:21:26.852Z,88.06
2022-12-12T00:23:56.153Z,89.78
2022-12-12T00:26:28.382Z,90.08
2022-12-12T00:28:58.090Z,88.94
2022-12-12T00:31:27.604Z,88.53
2022-12-12T00:33:55.986Z,88.03
2022-12-12T00:36:27.002Z,88.34
2022-12-12T00:38:55.832Z,88.74
2022-12-12T00:41:24.949Z,87.98
2022-12-12T00:43:52.907Z,89.37
2022-12-12T00:46:24.419Z,91.97
2022-12-12T00:48:58.134Z,91.28
2022-12-12T00:51:28.096Z,89.93
2022-12-12T00:53:58.408Z,90.38
2022-12-12T00:56:29.095Z,89.88
2022-12-12T00:58:56.951Z,89.65
2022-12-12T01:01:29.995Z,90.73
2022-12-12T01:03:59.286Z,91.14
2022-12-12T01:06:28.497Z,90.14
2022-12-12T01:08:56.584Z,90.24
2022-12-12T01:11:24.942Z,89.30
2022-12-12T01:13:54.345Z,89.45
2022-12-12T01:16:23.608Z,89.61
2022-12-12T01:18:51.766Z,90.44
2022-12-12T01:21:21.372Z,91.62
2022-12-12T01:23:49.981Z,91.92
2022-12-12T01:26:21.652Z,92.16
2022-12-12T01:28:49.637Z,90.51
2022-12-12T01:31:20.237Z,92.37
2022-12-12T01:33:48.272Z,92.36
2022-12-12T01:36:19.322Z,93.14
2022-12-12T01:38:48.776Z,95.60
2022-12-12T01:41:19.217Z,96.19
2022-12-12T01:43:47.591Z,95.88
2022-12-12T01:46:37.785Z,95.77
2022-12-12T01:49:09.546Z,96.05
2022-12-12T01:51:40.363Z,98.00
2022-12-12T01:54:12.023Z,98.59
2022-12-12T01:56:42.803Z,98.15
2022-12-12T01:59:14.455Z,97.68
2022-12-12T02:01:43.275Z,97.82
2022-12-12T02:04:13.132Z,99.07
2022-12-12T02:06:43.572Z,99.00
2022-12-12T02:09:14.281Z,97.92
2022-12-12T02:11:46.571Z,96.87
2022-12-12T02:14:19.020Z,95.87
2022-12-12T02:17:05.210Z,94.76
2022-12-12T02:19:38.874Z,94.67
2022-12-12T02:22:26.020Z,92.41
2022-12-12T02:25:29.273Z,90.50
2022-12-12T02:28:03.414Z,88.07
2022-12-12T02:30:49.895Z,86.09
2022-12-12T02:33:48.856Z,84.27
2022-12-12T02:36:40.702Z,83.46
2022-12-12T02:39:14.793Z,82.76
2022-12-12T02:41:55.561Z,82.15
2022-12-12T02:44:34.251Z,81.78
2022-12-12T02:47:21.619Z,82.15
2022-12-12T02:49:57.852Z,81.23
2022-12-12T02:52:26.249Z,81.82
2022-12-12T02:54:54.492Z,82.25
2022-12-12T02:57:25.372Z,82.46
2022-12-12T02:59:58.513Z,83.21
2022-12-12T03:02:50.261Z,81.99
2022-12-12T03:05:48.165Z,81.98
2022-12-12T03:08:34.223Z,81.24
2022-12-12T03:11:17.453Z,84.35
2022-12-12T03:13:48.257Z,83.71
2022-12-12T03:16:32.942Z,84.08
2022-12-12T03:19:17.666Z,84.38
2022-12-12T03:22:24.833Z,87.69
2022-12-12T03:25:03.724Z,90.55
2022-12-12T03:27:43.473Z,88.89
2022-12-12T03:30:18.083Z,89.96
2022-12-12T03:33:17.052Z,89.04
2022-12-12T03:35:50.503Z,88.40
2022-12-12T03:38:27.103Z,88.89
2022-12-12T03:41:02.103Z,88.49
2022-12-12T03:43:35.813Z,88.91
2022-12-12T03:46:22.503Z,89.52
2022-12-12T03:49:07.924Z,89.07
2022-12-12T03:51:48.506Z,91.17
2022-12-12T03:55:15.850Z,93.67
2022-12-12T03:58:00.303Z,94.45
2022-12-12T04:00:32.692Z,94.78
2022-12-12T04:03:11.107Z,92.13
2022-12-12T04:06:25.982Z,92.64
2022-12-12T04:09:22.036Z,92.17
2022-12-12T04:12:38.605Z,94.55
2022-12-12T04:15:44.605Z,94.33
2022-12-12T04:18:36.542Z,93.12
2022-12-12T04:21:57.804Z,92.66
2022-12-12T04:24:39.311Z,90.87
2022-12-12T04:27:29.281Z,92.90
2022-12-12T04:30:09.793Z,93.78
2022-12-12T04:32:53.212Z,92.83
2022-12-12T04:35:28.634Z,94.60
2022-12-12T04:38:03.882Z,94.70
2022-12-12T04:40:39.471Z,93.01
2022-12-12T04:43:12.644Z,93.97
2022-12-12T04:45:48.612Z,93.25
2022-12-12T04:48:21.413Z,93.10
2022-12-12T04:50:53.716Z,92.29
2022-12-12T04:53:30.273Z,92.23
2022-12-12T04:56:05.824Z,92.18
2022-12-12T04:58:33.635Z,91.87
2022-12-12T05:01:09.324Z,92.43
2022-12-12T05:03:59.381Z,91.65
2022-12-12T05:06:38.053Z,91.48
2022-12-12T05:09:07.994Z,91.54
2022-12-12T05:11:38.943Z,90.06
2022-12-12T05:14:09.853Z,93.23
2022-12-12T05:16:53.220Z,94.06
2022-12-12T05:19:21.282Z,95.16
2022-12-12T05:21:50.743Z,94.05
2022-12-12T05:24:18.726Z,93.20
2022-12-12T05:26:47.243Z,92.48
2022-12-12T05:29:15.203Z,92.85
2022-12-12T05:31:44.532Z,93.11
2022-12-12T05:34:13.192Z,93.36
2022-12-12T05:36:41.737Z,93.47
2022-12-12T05:39:09.721Z,94.27
2022-12-12T05:41:38.152Z,95.89
2022-12-12T05:44:06.202Z,96.45
2022-12-12T05:46:34.496Z,96.46
2022-12-12T05:49:02.451Z,96.65
2022-12-12T05:51:31.922Z,96.57
2022-12-12T05:54:01.733Z,96.08
2022-12-12T05:56:30.100Z,96.07
2022-12-12T05:58:58.202Z,96.20
2022-12-12T06:01:26.593Z,95.12
2022-12-12T06:03:54.643Z,96.63
2022-12-12T06:06:24.364Z,96.49
2022-12-12T06:08:52.402Z,96.51
2022-12-12T06:11:20.702Z,96.68
2022-12-12T06:13:48.771Z,97.98
2022-12-12T06:16:19.429Z,96.65
2022-12-12T06:18:52.572Z,97.43
2022-12-12T06:21:22.180Z,95.96
2022-12-12T06:23:50.421Z,96.24
2022-12-12T06:26:20.131Z,96.52
2022-12-12T06:28:48.166Z,97.33
2022-12-12T06:31:17.239Z,97.50
2022-12-12T06:33:45.368Z,96.92
2022-12-12T06:36:26.563Z,95.82
2022-12-12T06:38:59.454Z,97.14
2022-12-12T06:41:31.312Z,98.06
2022-12-12T06:43:59.870Z,97.26
2022-12-12T06:46:30.909Z,97.16
2022-12-12T06:48:59.359Z,96.01
2022-12-12T06:51:36.539Z,97.17
2022-12-12T06:54:05.145Z,96.79
2022-12-12T06:56:33.453Z,96.67
2022-12-12T06:59:01.419Z,96.41
2022-12-12T07:01:30.998Z,96.45
2022-12-12T07:03:59.963Z,96.20
2022-12-12T07:06:28.957Z,94.21
2022-12-12T07:08:59.221Z,95.75
2022-12-12T07:11:28.579Z,95.49
2022-12-12T07:13:58.155Z,93.91
2022-12-12T07:16:26.599Z,93.13
2022-12-12T07:18:54.536Z,92.52
2022-12-12T07:21:22.934Z,92.40
2022-12-12T07:23:50.912Z,91.64
2022-12-12T07:26:22.833Z,90.96
2022-12-12T07:28:51.805Z,89.90
2022-12-12T07:31:40.366Z,90.21
2022-12-12T07:34:15.035Z,91.07
2022-12-12T07:36:43.601Z,90.62
2022-12-12T07:39:15.878Z,91.23
2022-12-12T07:41:47.256Z,89.96
2022-12-12T07:44:20.873Z,89.25
2022-12-12T07:46:50.314Z,86.94
2022-12-12T07:49:18.511Z,86.80
2022-12-12T07:51:49.240Z,84.55
2022-12-12T07:54:17.933Z,85.81
2022-12-12T07:56:46.406Z,84.56
2022-12-12T07:59:14.433Z,85.54
2022-12-12T08:01:43.025Z,85.83
2022-12-12T08:04:11.153Z,87.39
2022-12-12T08:06:39.574Z,87.63
2022-12-12T08:09:07.587Z,86.93
2022-12-12T08:11:40.742Z,84.44
2022-12-12T08:14:14.334Z,83.47
2022-12-12T08:16:43.804Z,85.35
2022-12-12T08:19:13.243Z,83.31
2022-12-12T08:21:43.435Z,85.32
2022-12-12T08:24:15.832Z,85.94
2022-12-12T08:26:45.483Z,85.49
2022-12-12T08:29:13.714Z,85.61
2022-12-12T08:31:45.905Z,84.51
2022-12-12T08:34:14.183Z,85.81
2022-12-12T08:36:44.344Z,83.42
2022-12-12T08:39:16.434Z,82.87
2022-12-12T08:41:49.053Z,83.89
2022-12-12T08:44:19.625Z,83.85
2022-12-12T08:46:51.556Z,80.77
2022-12-12T08:49:20.593Z,80.13
2022-12-12T08:51:51.695Z,81.11
2022-12-12T08:54:20.543Z,80.95
2022-12-12T08:56:48.831Z,78.86
2022-12-12T08:59:16.931Z,77.67
2022-12-12T09:01:45.425Z,78.86
2022-12-12T09:04:13.792Z,79.17
2022-12-12T09:06:45.984Z,78.87
2022-12-12T09:09:14.237Z,78.33
2022-12-12T09:11:42.586Z,81.76
2022-12-12T09:14:11.620Z,81.19
2022-12-12T09:16:40.169Z,80.96
2022-12-12T09:19:08.284Z,79.13
2022-12-12T09:21:37.903Z,77.48
2022-12-12T09:24:06.296Z,78.71
2022-12-12T09:26:34.946Z,77.53
2022-12-12T09:29:03.503Z,77.98
2022-12-12T09:31:33.066Z,75.94
2022-12-12T09:34:01.034Z,77.52
2022-12-12T09:36:29.676Z,77.25
2022-12-12T09:38:57.796Z,74.48
2022-12-12T09:41:30.851Z,75.87
2022-12-12T09:44:16.134Z,75.46
2022-12-12T09:46:56.653Z,77.44
2022-12-12T09:49:46.997Z,77.48
2022-12-12T09:52:27.721Z,77.25
2022-12-12T09:55:15.664Z,75.62
2022-12-12T09:57:54.975Z,78.03
2022-12-12T10:00:23.134Z,76.21
2022-12-12T10:03:04.070Z,75.16
2022-12-12T10:05:41.668Z,73.31
2022-12-12T10:08:46.477Z,73.76
2022-12-12T10:11:40.129Z,72.63
2022-12-12T10:14:12.275Z,72.05
2022-12-12T10:16:41.554Z,71.51
2022-12-12T10:19:29.889Z,72.29
2022-12-12T10:22:06.451Z,70.91
2022-12-12T10:24:52.915Z,70.05
2022-12-12T10:27:25.053Z,69.36
2022-12-12T10:29:54.549Z,67.39
2022-12-12T10:32:45.244Z,67.51
2022-12-12T10:35:26.398Z,67.33
2022-12-12T10:38:15.056Z,68.43
2022-12-12T10:41:05.687Z,69.49
2022-12-12T10:44:00.815Z,70.82
2022-12-12T10:46:39.602Z,69.73
2022-12-12T10:49:25.598Z,69.54
2022-12-12T10:51:57.970Z,71.42
2022-12-12T10:54:28.653Z,71.43
2022-12-12T10:57:06.105Z,71.32
2022-12-12T10:59:45.595Z,68.58
2022-12-12T11:02:28.780Z,69.19
2022-12-12T11:05:06.548Z,70.15
2022-12-12T11:07:47.772Z,68.12
2022-12-12T11:10:23.382Z,68.48
2022-12-12T11:13:16.644Z,67.54
2022-12-12T11:15:56.927Z,68.04
2022-12-12T11:18:26.214Z,67.59
2022-12-12T11:21:13.723Z,66.29
2022-12-12T11:23:50.814Z,65.10
2022-12-12T11:26:21.126Z,64.77
2022-12-12T11:28:59.972Z,65.06
2022-12-12T11:31:32.933Z,67.50
2022-12-12T11:34:07.762Z,66.46
2022-12-12T11:36:42.034Z,63.35
2022-12-12T11:39:25.176Z,59.50
2022-12-12T11:42:19.697Z,59.09
2022-12-12T11:45:17.774Z,60.44
2022-12-12T11:47:47.645Z,63.52
2022-12-12T11:50:26.095Z,62.07
2022-12-12T11:52:56.783Z,61.34
2022-12-12T11:55:39.946Z,64.17
2022-12-12T11:58:22.916Z,63.36
2022-12-12T12:01:03.479Z,63.40
2022-12-12T12:03:49.478Z,62.43
2022-12-12T12:06:56.704Z,62.95
2022-12-12T12:09:48.852Z,63.46
2022-12-12T12:12:35.609Z,64.09
2022-12-12T12:15:22.621Z,62.15
2022-12-12T12:18:28.440Z,59.54
2022-12-12T12:21:22.616Z,57.99
2022-12-12T12:24:06.345Z,61.05
2022-12-12T12:26:47.852Z,59.10
2022-12-12T12:29:39.322Z,55.64
2022-12-12T12:32:26.152Z,55.67
2022-12-12T12:35:19.984Z,58.23
2022-12-12T12:37:54.964Z,56.86
2022-12-12T12:40:56.383Z,63.16
2022-12-12T12:44:18.878Z,57.96
2022-12-12T12:47:04.955Z,63.06
2022-12-12T12:49:55.944Z,62.55
2022-12-12T12:52:55.039Z,65.09
2022-12-12T12:55:51.765Z,67.37
2022-12-12T12:58:28.554Z,69.39
2022-12-12T13:01:15.006Z,67.41
2022-12-12T13:03:55.325Z,68.21
2022-12-12T13:06:43.654Z,71.98
2022-12-12T13:09:39.114Z,71.58
2022-12-12T13:12:25.953Z,71.42
2022-12-12T13:15:01.788Z,73.55
2022-12-12T13:17:52.115Z,77.46
2022-12-12T13:20:25.504Z,79.28
2022-12-12T13:23:20.764Z,81.29
2022-12-12T13:26:12.326Z,83.02
2022-12-12T13:28:54.384Z,82.04
2022-12-12T13:31:47.747Z,83.75
2022-12-12T13:34:19.725Z,83.58
2022-12-12T13:36:51.544Z,87.31
2022-12-12T13:39:39.034Z,85.63
2022-12-12T13:42:10.594Z,83.08
2022-12-12T13:44:48.488Z,83.30
2022-12-12T13:47:18.046Z,83.24
2022-12-12T13:49:48.420Z,85.51
2022-12-12T13:52:43.793Z,88.24
2022-12-12T13:55:11.665Z,86.45
2022-12-12T13:58:03.026Z,89.05
2022-12-12T14:00:33.344Z,88.07
2022-12-12T14:03:08.067Z,87.07
2022-12-12T14:05:46.676Z,83.46
2022-12-12T14:08:14.948Z,83.61
2022-12-12T14:10:56.276Z,83.22
2022-12-12T14:13:24.624Z,82.34
2022-12-12T14:15:58.555Z,85.37
2022-12-12T14:18:31.628Z,87.36
2022-12-12T14:21:04.759Z,89.10
2022-12-12T14:23:36.424Z,87.91
2022-12-12T14:26:27.509Z,86.91
2022-12-12T14:29:17.345Z,86.81
2022-12-12T14:32:06.585Z,87.74
2022-12-12T14:34:35.454Z,86.76
2022-12-12T14:37:12.494Z,85.10
2022-12-12T14:39:50.515Z,83.00
2022-12-12T14:43:16.406Z,86.94
2022-12-12T14:45:49.723Z,89.24
2022-12-12T14:48:36.642Z,89.06
2022-12-12T14:51:16.602Z,89.09
2022-12-12T14:53:50.889Z,86.33
2022-12-12T14:56:21.064Z,85.75
2022-12-12T14:58:59.778Z,86.45
2022-12-12T15:01:42.796Z,87.25
2022-12-12T15:04:20.100Z,87.86
2022-12-12T15:06:56.243Z,89.39
2022-12-12T15:09:35.976Z,91.23
2022-12-12T15:12:10.455Z,94.90
2022-12-12T15:14:41.943Z,93.68
2022-12-12T15:17:19.896Z,91.19
2022-12-12T15:19:59.364Z,89.56
2022-12-12T15:22:37.497Z,87.85
2022-12-12T15:25:33.437Z,89.61
2022-12-12T15:28:03.465Z,88.08
2022-12-12T15:30:42.397Z,87.73
2022-12-12T15:33:18.042Z,87.68
2022-12-12T15:36:05.505Z,87.37
2022-12-12T15:38:34.846Z,87.45
2022-12-12T15:41:12.795Z,87.67
2022-12-12T15:43:43.412Z,87.49
2022-12-12T15:46:15.971Z,89.68
2022-12-12T15:48:49.955Z,90.29
2022-12-12T15:51:24.645Z,89.88
2022-12-12T15:53:55.848Z,90.27
2022-12-12T15:56:29.699Z,92.32
2022-12-12T15:59:15.522Z,91.75
2022-12-12T16:01:43.975Z,89.51
2022-12-12T16:04:12.258Z,88.26
2022-12-12T16:06:45.742Z,87.20
2022-12-12T16:09:18.922Z,88.16
2022-12-12T16:11:54.119Z,87.24
2022-12-12T16:14:43.279Z,90.20
2022-12-12T16:17:18.112Z,91.63
2022-12-12T16:20:03.418Z,90.08
2022-12-12T16:22:34.058Z,89.49
2022-12-12T16:25:24.722Z,89.13
2022-12-12T16:28:13.371Z,88.75
2022-12-12T16:30:43.806Z,88.71
2022-12-12T16:33:30.561Z,88.00
2022-12-12T16:36:01.318Z,86.59
2022-12-12T16:38:31.565Z,87.55
2022-12-12T16:41:05.779Z,87.37
2022-12-12T16:43:33.696Z,87.10
2022-12-12T16:46:01.912Z,87.19
2022-12-12T16:48:36.412Z,87.55
2022-12-12T16:51:07.425Z,87.13
2022-12-12T16:53:38.271Z,87.62
2022-12-12T16:56:06.995Z,87.55
2022-12-12T16:58:35.085Z,87.20
2022-12-12T17:01:05.033Z,87.11
2022-12-12T17:03:33.159Z,88.38
2022-12-12T17:06:02.762Z,86.83
2022-12-12T17:08:30.775Z,87.79
2022-12-12T17:11:09.885Z,88.27
2022-12-12T17:13:48.504Z,87.79
2022-12-12T17:16:19.322Z,88.20
2022-12-12T17:18:49.589Z,89.06
2022-12-12T17:21:18.967Z,88.34
2022-12-12T17:23:47.057Z,89.27
2022-12-12T17:26:15.566Z,88.27
2022-12-12T17:28:43.546Z,87.22
2022-12-12T17:31:13.156Z,88.08
2022-12-12T17:33:49.909Z,87.42
2022-12-12T17:36:20.015Z,88.94
2022-12-12T17:38:48.993Z,88.78
2022-12-12T17:41:17.663Z,88.47
2022-12-12T17:43:49.327Z,89.18
2022-12-12T17:46:20.674Z,89.70
2022-12-12T17:48:48.931Z,90.75
2022-12-12T17:51:21.378Z,88.87
2022-12-12T17:53:51.598Z,87.71
2022-12-12T17:56:23.580Z,88.66
2022-12-12T17:58:51.879Z,88.29
2022-12-12T18:01:29.360Z,89.41
2022-12-12T18:03:59.155Z,88.11
2022-12-12T18:06:31.799Z,89.44
2022-12-12T18:09:01.055Z,89.21
2022-12-12T18:11:33.317Z,90.37
2022-12-12T18:14:04.276Z,89.82
2022-12-12T18:16:34.384Z,90.06
2022-12-12T18:19:03.285Z,89.59
2022-12-12T18:24:24.833Z,88.23
2022-12-12T18:26:55.604Z,88.69
2022-12-12T18:29:25.074Z,88.22
2022-12-12T18:31:54.091Z,88.51
2022-12-12T18:34:23.493Z,89.52
2022-12-12T18:36:54.085Z,90.42
2022-12-12T18:39:22.258Z,91.37
2022-12-12T18:41:52.306Z,92.40
2022-12-12T18:44:20.473Z,91.17
2022-12-12T18:46:51.110Z,91.35
2022-12-12T18:49:19.423Z,91.02
2022-12-12T18:51:47.930Z,90.91
2022-12-12T18:54:16.783Z,90.31
2022-12-12T18:56:47.166Z,89.89
2022-12-12T18:59:16.036Z,91.34
2022-12-12T19:01:45.287Z,90.57
2022-12-12T19:04:17.730Z,90.13
2022-12-12T19:06:53.313Z,89.86
2022-12-12T19:09:21.952Z,89.64
2022-12-12T19:11:54.289Z,90.73
2022-12-12T19:14:35.709Z,90.22
2022-12-12T19:17:09.367Z,89.94
2022-12-12T19:19:37.611Z,89.17
2022-12-12T19:22:24.813Z,89.84
2022-12-12T19:25:03.698Z,89.86
2022-12-12T19:27:32.178Z,89.94
2022-12-12T19:30:00.155Z,90.22
2022-12-12T19:32:29.027Z,89.63
2022-12-12T19:34:57.192Z,89.61
2022-12-12T19:37:26.440Z,89.74
2022-12-12T19:39:54.745Z,89.90
2022-12-12T19:42:23.573Z,89.80
2022-12-12T19:44:51.654Z,89.42
2022-12-12T19:47:20.131Z,89.35
2022-12-12T19:49:49.891Z,90.48
2022-12-12T19:52:20.137Z,90.67
2022-12-12T19:54:48.088Z,89.29
2022-12-12T19:57:16.452Z,89.37
2022-12-12T19:59:44.573Z,89.60
2022-12-12T20:02:13.485Z,89.70
2022-12-12T20:04:41.877Z,90.30
2022-12-12T20:07:10.322Z,89.34
2022-12-12T20:09:38.457Z,89.66
2022-12-12T20:12:06.862Z,90.44
2022-12-12T20:14:37.195Z,89.50
2022-12-12T20:17:05.578Z,90.13
2022-12-12T20:19:33.443Z,89.72
2022-12-12T20:22:03.015Z,89.91
2022-12-12T20:24:34.090Z,89.51
2022-12-12T20:27:04.007Z,89.83
2022-12-12T20:29:32.844Z,89.45
2022-12-12T20:32:01.893Z,89.28
2022-12-12T20:34:30.483Z,90.03
2022-12-12T20:36:58.995Z,89.45
2022-12-12T20:39:27.054Z,88.79
2022-12-12T20:41:57.337Z,89.33
2022-12-12T20:44:26.021Z,90.16
2022-12-12T20:46:56.133Z,91.20
2022-12-12T20:49:25.021Z,91.12
2022-12-12T20:51:55.919Z,91.10
2022-12-12T20:54:27.824Z,90.66
2022-12-12T20:56:58.567Z,90.50
2022-12-12T20:59:27.217Z,93.05
2022-12-12T21:01:55.675Z,94.05
2022-12-12T21:04:24.593Z,97.28
2022-12-12T21:06:54.485Z,97.11
2022-12-12T21:09:26.446Z,96.51
2022-12-12T21:11:58.641Z,96.50
2022-12-12T21:14:28.339Z,98.16
2022-12-12T21:16:57.244Z,97.87
2022-12-12T21:19:25.326Z,96.74
2022-12-12T21:21:54.905Z,97.12
2022-12-12T21:24:23.042Z,97.93
2022-12-12T21:26:51.474Z,96.51
2022-12-12T21:29:20.063Z,97.42
2022-12-12T21:31:52.026Z,96.12
2022-12-12T21:34:23.131Z,97.49
2022-12-12T21:36:55.908Z,98.92
2022-12-12T21:39:27.217Z,97.66
2022-12-12T21:41:56.355Z,97.16
2022-12-12T21:44:25.256Z,94.87
2022-12-12T21:46:53.819Z,95.37
2022-12-12T21:49:28.388Z,96.39
2022-12-12T21:52:10.178Z,96.90
2022-12-12T21:54:38.449Z,96.82
2022-12-12T21:57:09.645Z,95.83
2022-12-12T21:59:39.068Z,94.46
2022-12-12T22:02:07.953Z,93.82
2022-12-12T22:04:36.094Z,93.19
2022-12-12T22:07:04.681Z,93.71
2022-12-12T22:09:32.642Z,93.52
2022-12-12T22:12:03.517Z,92.90
2022-12-12T22:14:34.403Z,92.85
2022-12-12T22:17:04.652Z,92.68
2022-12-12T22:19:32.987Z,91.53
2022-12-12T22:22:01.393Z,91.98
2022-12-12T22:24:29.699Z,91.33
2022-12-12T22:26:59.677Z,92.25
2022-12-12T22:29:27.738Z,90.96
2022-12-12T22:31:57.122Z,91.92
2022-12-12T22:34:25.696Z,91.34
2022-12-12T22:36:54.318Z,91.35
2022-12-12T22:39:25.423Z,91.20
2022-12-12T22:41:57.182Z,91.16
2022-12-12T22:44:26.426Z,90.68
2022-12-12T22:46:56.570Z,90.97
2022-12-12T22:49:26.541Z,93.19
2022-12-12T22:51:57.315Z,91.63
2022-12-12T22:54:26.102Z,92.70
2022-12-12T22:56:55.303Z,93.88
2022-12-12T22:59:25.501Z,94.05
2022-12-12T23:01:53.758Z,97.42
2022-12-12T23:04:21.969Z,99.89
2022-12-12T23:06:50.521Z,100.00
2022-12-12T23:09:22.079Z,99.30
2022-12-12T23:11:50.690Z,99.35
2022-12-12T23:14:21.966Z,98.45
2022-12-12T23:16:52.029Z,98.51
2022-12-12T23:19:25.937Z,100.00
2022-12-12T23:21:54.420Z,97.61
2022-12-12T23:24:23.092Z,96.71
2022-12-12T23:26:54.971Z,99.80
2022-12-12T23:29:23.524Z,95.66
2022-12-12T23:31:53.475Z,94.59
2022-12-12T23:34:25.383Z,93.65
2022-12-12T23:36:56.897Z,92.73
2022-12-12T23:39:27.681Z,92.26
2022-12-12T23:41:56.091Z,91.02
2022-12-12T23:44:24.939Z,90.40
2022-12-12T23:46:54.407Z,89.74
2022-12-12T23:49:26.645Z,90.67
2022-12-12T23:52:00.232Z,90.70
2022-12-12T23:54:35.203Z,89.64
2022-12-12T23:57:03.560Z,88.90
2022-12-12T23:59:31.674Z,88.53
